Map

Track Data

SID SEASON NUMBER BASIN SUBBASIN NAME ISO_TIME NATURE LAT LON WMO_WIND WMO_PRES WMO_AGENCY TRACK_TYPE DIST2LAND LANDFALL IFLAG USA_AGENCY USA_ATCF_ID USA_LAT USA_LON USA_RECORD USA_STATUS USA_WIND USA_PRES USA_SSHS USA_R34_NE USA_R34_SE USA_R34_SW USA_R34_NW USA_R50_NE USA_R50_SE USA_R50_SW USA_R50_NW USA_R64_NE USA_R64_SE USA_R64_SW USA_R64_NW USA_POCI USA_ROCI USA_RMW USA_EYE TOKYO_LAT TOKYO_LON TOKYO_GRADE TOKYO_WIND TOKYO_PRES TOKYO_R50_DIR TOKYO_R50_LONG TOKYO_R50_SHORT TOKYO_R30_DIR TOKYO_R30_LONG TOKYO_R30_SHORT TOKYO_LAND CMA_LAT CMA_LON CMA_CAT CMA_WIND CMA_PRES HKO_LAT HKO_LON HKO_CAT HKO_WIND HKO_PRES NEWDELHI_LAT NEWDELHI_LON NEWDELHI_GRADE NEWDELHI_WIND NEWDELHI_PRES NEWDELHI_CI NEWDELHI_DP NEWDELHI_POCI REUNION_LAT REUNION_LON REUNION_TYPE REUNION_WIND REUNION_PRES REUNION_TNUM REUNION_CI REUNION_RMW REUNION_R34_NE REUNION_R34_SE REUNION_R34_SW REUNION_R34_NW REUNION_R50_NE REUNION_R50_SE REUNION_R50_SW REUNION_R50_NW REUNION_R64_NE REUNION_R64_SE REUNION_R64_SW REUNION_R64_NW BOM_LAT BOM_LON BOM_TYPE BOM_WIND BOM_PRES BOM_TNUM BOM_CI BOM_RMW BOM_R34_NE BOM_R34_SE BOM_R34_SW BOM_R34_NW BOM_R50_NE BOM_R50_SE BOM_R50_SW BOM_R50_NW BOM_R64_NE BOM_R64_SE BOM_R64_SW BOM_R64_NW BOM_ROCI BOM_POCI BOM_EYE BOM_POS_METHOD BOM_PRES_METHOD NADI_LAT NADI_LON NADI_CAT NADI_WIND NADI_PRES WELLINGTON_LAT WELLINGTON_LON WELLINGTON_WIND WELLINGTON_PRES DS824_LAT DS824_LON DS824_STAGE DS824_WIND DS824_PRES TD9636_LAT TD9636_LON TD9636_STAGE TD9636_WIND TD9636_PRES TD9635_LAT TD9635_LON TD9635_WIND TD9635_PRES TD9635_ROCI NEUMANN_LAT NEUMANN_LON NEUMANN_CLASS NEUMANN_WIND NEUMANN_PRES MLC_LAT MLC_LON MLC_CLASS MLC_WIND MLC_PRES USA_GUST BOM_GUST BOM_GUST_PER REUNION_GUST REUNION_GUST_PER USA_SEAHGT USA_SEARAD_NE USA_SEARAD_SE USA_SEARAD_SW USA_SEARAD_NW STORM_SPEED STORM_DIR
1924210N29282 1924 22 NA NA NOT_NAMED 1924-07-28 06:00:00 TS 28.5000 -78.5000 30 hurdat_atl main 195 195 O_____________ hurdat_atl AL021924 28.5000 -78.5000 TD 30 -1 17 30
1924210N29282 1924 22 NA NA NOT_NAMED 1924-07-28 09:00:00 TS 29.2504 -78.0014 main 258 258 P_____________ AL021924 29.2504 -78.0014 TD 32 -1 17 30
1924210N29282 1924 22 NA NA NOT_NAMED 1924-07-28 12:00:00 TS 30.0000 -77.5000 35 hurdat_atl main 335 335 O_____________ hurdat_atl AL021924 30.0000 -77.5000 TS 35 0 17 30
1924210N29282 1924 22 NA NA NOT_NAMED 1924-07-28 15:00:00 TS 30.7498 -76.9992 main 342 302 P_____________ AL021924 30.7498 -76.9992 TS 37 0 17 30
1924210N29282 1924 22 NA NA NOT_NAMED 1924-07-28 18:00:00 TS 31.5000 -76.5000 40 hurdat_atl main 302 259 O_____________ hurdat_atl AL021924 31.5000 -76.5000 TS 40 0 17 29
1924210N29282 1924 22 NA NA NOT_NAMED 1924-07-28 21:00:00 TS 32.2497 -76.0065 main 265 210 P_____________ AL021924 32.2497 -76.0065 TS 40 0 17 29
1924210N29282 1924 22 NA NA NOT_NAMED 1924-07-29 00:00:00 TS 33.0000 -75.5000 40 hurdat_atl main 210 177 O_____________ hurdat_atl AL021924 33.0000 -75.5000 TS 40 0 17 30
1924210N29282 1924 22 NA NA NOT_NAMED 1924-07-29 03:00:00 TS 33.7495 -74.9786 main 177 165 P_____________ AL021924 33.7495 -74.9786 TS 42 0 18 31
1924210N29282 1924 22 NA NA NOT_NAMED 1924-07-29 06:00:00 TS 34.5000 -74.4000 45 hurdat_atl main 170 161 O_____________ hurdat_atl AL021924 34.5000 -74.4000 TS 45 0 18 34
1924210N29282 1924 22 NA NA NOT_NAMED 1924-07-29 09:00:00 TS 35.2722 -73.7370 main 171 168 P_____________ AL021924 35.2722 -73.7370 TS 47 0 19 37
1924210N29282 1924 22 NA NA NOT_NAMED 1924-07-29 12:00:00 TS 36.0000 -73.0000 50 hurdat_atl main 225 225 O_____________ hurdat_atl AL021924 36.0000 -73.0000 TS 50 0 18 42
1924210N29282 1924 22 NA NA NOT_NAMED 1924-07-29 15:00:00 TS 36.6371 -72.2213 main 308 308 P_____________ AL021924 36.6371 -72.2213 TS 52 0 18 47
1924210N29282 1924 22 NA NA NOT_NAMED 1924-07-29 18:00:00 TS 37.2000 -71.4000 55 hurdat_atl main 346 346 O_____________ hurdat_atl AL021924 37.2000 -71.4000 TS 55 0 17 50
1924210N29282 1924 22 NA NA NOT_NAMED 1924-07-29 21:00:00 TS 37.7294 -70.5639 main 378 375 P_____________ AL021924 37.7294 -70.5639 TS 55 0 17 53
1924210N29282 1924 22 NA NA NOT_NAMED 1924-07-30 00:00:00 TS 38.2000 -69.7000 55 hurdat_atl main 377 353 O_____________ hurdat_atl AL021924 38.2000 -69.7000 TS 55 0 16 57
1924210N29282 1924 22 NA NA NOT_NAMED 1924-07-30 03:00:00 TS 38.6368 -68.8144 main 359 343 P_____________ AL021924 38.6368 -68.8144 TS 52 0 16 60
1924210N29282 1924 22 NA NA NOT_NAMED 1924-07-30 06:00:00 TS 39.0000 -67.9000 50 hurdat_atl main 348 348 O_____________ hurdat_atl AL021924 39.0000 -67.9000 TS 50 0 16 66
1924210N29282 1924 22 NA NA NOT_NAMED 1924-07-30 09:00:00 TS 39.2717 -66.9635 main 367 367 P_____________ AL021924 39.2717 -66.9635 TS 47 0 16 71
1924210N29282 1924 22 NA NA NOT_NAMED 1924-07-30 12:00:00 TS 39.5000 -66.0000 45 hurdat_atl main 416 416 O_____________ hurdat_atl AL021924 39.5000 -66.0000 TS 45 0 16 73
1924210N29282 1924 22 NA NA NOT_NAMED 1924-07-30 15:00:00 TS 39.7443 -65.0095 main 423 399 P_____________ AL021924 39.7443 -65.0095 TS 42 0 16 72
1924210N29282 1924 22 NA NA NOT_NAMED 1924-07-30 18:00:00 ET 40.0000 -64.0000 40 hurdat_atl main 403 O_____________ hurdat_atl AL021924 40.0000 -64.0000 EX 40 -4 16 72

About IBTrACS Database

This database is a web-friendly format of International Best Track Archive for Climate Stewardship (IBTrACS), a global best track data archive curated by NOAA dating back to 1842.

Updated: 2021-10-27